sensor_id;sensor_type;location;lat;lon;timestamp;pressure;altitude;pressure_sealevel;temperature;humidity
72896;BME280;61036;53.224;6.554;2023-09-12T00:01:09;101284.31;;;25.92;100.00
72896;BME280;61036;53.224;6.554;2023-09-12T00:03:35;101286.53;;;26.10;100.00
72896;BME280;61036;53.224;6.554;2023-09-12T00:06:02;101262.81;;;26.49;100.00
72896;BME280;61036;53.224;6.554;2023-09-12T00:08:28;101269.38;;;26.34;100.00
72896;BME280;61036;53.224;6.554;2023-09-12T00:11:08;101269.50;;;26.87;100.00
72896;BME280;61036;53.224;6.554;2023-09-12T00:13:38;101268.81;;;26.59;100.00
72896;BME280;61036;53.224;6.554;2023-09-12T00:16:04;101271.28;;;26.34;100.00
72896;BME280;61036;53.224;6.554;2023-09-12T00:18:30;101278.38;;;25.95;100.00
72896;BME280;61036;53.224;6.554;2023-09-12T00:20:56;101264.28;;;26.38;100.00
72896;BME280;61036;53.224;6.554;2023-09-12T00:23:22;101249.59;;;26.24;100.00
72896;BME280;61036;53.224;6.554;2023-09-12T00:25:51;101242.84;;;26.53;100.00
72896;BME280;61036;53.224;6.554;2023-09-12T00:28:18;101248.28;;;26.20;100.00
72896;BME280;61036;53.224;6.554;2023-09-12T00:30:43;101239.31;;;26.11;100.00
72896;BME280;61036;53.224;6.554;2023-09-12T00:33:09;101240.97;;;25.99;100.00
72896;BME280;61036;53.224;6.554;2023-09-12T00:35:34;101248.28;;;26.20;100.00
72896;BME280;61036;53.224;6.554;2023-09-12T00:38:00;101240.22;;;26.18;100.00
72896;BME280;61036;53.224;6.554;2023-09-12T00:40:25;101232.09;;;26.10;100.00
72896;BME280;61036;53.224;6.554;2023-09-12T00:42:51;101224.72;;;26.31;100.00
72896;BME280;61036;53.224;6.554;2023-09-12T00:45:16;101221.44;;;26.00;100.00
72896;BME280;61036;53.224;6.554;2023-09-12T00:47:42;101221.69;;;26.06;100.00
72896;BME280;61036;53.224;6.554;2023-09-12T00:50:08;101225.50;;;26.11;100.00
72896;BME280;61036;53.224;6.554;2023-09-12T00:52:36;101234.44;;;25.65;100.00
72896;BME280;61036;53.224;6.554;2023-09-12T00:55:03;101233.34;;;26.01;100.00
72896;BME280;61036;53.224;6.554;2023-09-12T00:57:30;101232.78;;;26.32;100.00
72896;BME280;61036;53.224;6.554;2023-09-12T00:59:57;101241.50;;;25.81;100.00
72896;BME280;61036;53.224;6.554;2023-09-12T01:02:24;101244.97;;;25.83;100.00
72896;BME280;61036;53.224;6.554;2023-09-12T01:04:50;101243.84;;;25.77;100.00
72896;BME280;61036;53.224;6.554;2023-09-12T01:07:16;101242.16;;;25.76;100.00
72896;BME280;61036;53.224;6.554;2023-09-12T01:09:42;101238.63;;;25.54;100.00
72896;BME280;61036;53.224;6.554;2023-09-12T01:12:08;101243.53;;;25.94;100.00
72896;BME280;61036;53.224;6.554;2023-09-12T01:14:33;101243.56;;;26.00;100.00
72896;BME280;61036;53.224;6.554;2023-09-12T01:16:59;101240.81;;;26.07;100.00
72896;BME280;61036;53.224;6.554;2023-09-12T01:19:26;101238.84;;;25.94;100.00
72896;BME280;61036;53.224;6.554;2023-09-12T01:27:28;101235.44;;;26.67;100.00
72896;BME280;61036;53.224;6.554;2023-09-12T01:30:02;101229.66;;;26.68;100.00
72896;BME280;61036;53.224;6.554;2023-09-12T01:32:29;101230.47;;;26.36;100.00
72896;BME280;61036;53.224;6.554;2023-09-12T01:34:56;101220.88;;;26.25;100.00
72896;BME280;61036;53.224;6.554;2023-09-12T01:37:22;101231.69;;;26.20;100.00
72896;BME280;61036;53.224;6.554;2023-09-12T01:39:47;101235.09;;;26.22;100.00
72896;BME280;61036;53.224;6.554;2023-09-12T01:42:15;101238.97;;;26.34;100.00
72896;BME280;61036;53.224;6.554;2023-09-12T01:44:44;101235.53;;;26.26;100.00
72896;BME280;61036;53.224;6.554;2023-09-12T01:47:11;101237.38;;;25.98;100.00
72896;BME280;61036;53.224;6.554;2023-09-12T01:49:45;101240.69;;;26.42;100.00
72896;BME280;61036;53.224;6.554;2023-09-12T01:52:12;101243.06;;;25.90;100.00
72896;BME280;61036;53.224;6.554;2023-09-12T01:54:40;101241.94;;;26.33;100.00
72896;BME280;61036;53.224;6.554;2023-09-12T01:57:06;101245.47;;;26.00;100.00
72896;BME280;61036;53.224;6.554;2023-09-12T01:59:33;101249.88;;;25.88;100.00
72896;BME280;61036;53.224;6.554;2023-09-12T02:01:59;101245.97;;;25.75;100.00
72896;BME280;61036;53.224;6.554;2023-09-12T02:04:24;101246.38;;;25.72;100.00
72896;BME280;61036;53.224;6.554;2023-09-12T02:06:50;101241.28;;;25.69;100.00
72896;BME280;61036;53.224;6.554;2023-09-12T02:09:15;101231.53;;;25.80;100.00
72896;BME280;61036;53.224;6.554;2023-09-12T02:11:41;101234.50;;;25.37;100.00
72896;BME280;61036;53.224;6.554;2023-09-12T02:14:06;101233.59;;;25.65;100.00
72896;BME280;61036;53.224;6.554;2023-09-12T02:16:36;101237.19;;;26.00;100.00
72896;BME280;61036;53.224;6.554;2023-09-12T02:19:02;101234.06;;;25.34;100.00
72896;BME280;61036;53.224;6.554;2023-09-12T02:21:28;101235.75;;;25.06;100.00
72896;BME280;61036;53.224;6.554;2023-09-12T02:23:53;101240.06;;;25.44;100.00
72896;BME280;61036;53.224;6.554;2023-09-12T02:26:19;101242.72;;;25.65;100.00
72896;BME280;61036;53.224;6.554;2023-09-12T02:28:45;101237.94;;;25.46;100.00
72896;BME280;61036;53.224;6.554;2023-09-12T02:31:11;101239.53;;;25.62;100.00
72896;BME280;61036;53.224;6.554;2023-09-12T02:33:40;101240.41;;;26.17;100.00
72896;BME280;61036;53.224;6.554;2023-09-12T02:36:06;101250.84;;;25.39;100.00
72896;BME280;61036;53.224;6.554;2023-09-12T02:38:32;101244.22;;;25.33;100.00
72896;BME280;61036;53.224;6.554;2023-09-12T02:40:58;101255.47;;;25.31;100.00
72896;BME280;61036;53.224;6.554;2023-09-12T02:43:23;101258.03;;;25.33;100.00
72896;BME280;61036;53.224;6.554;2023-09-12T02:45:49;101253.53;;;25.25;100.00
72896;BME280;61036;53.224;6.554;2023-09-12T02:48:15;101252.97;;;25.37;100.00
72896;BME280;61036;53.224;6.554;2023-09-12T02:50:40;101252.63;;;25.18;100.00
72896;BME280;61036;53.224;6.554;2023-09-12T02:53:06;101250.03;;;25.45;100.00
72896;BME280;61036;53.224;6.554;2023-09-12T02:55:32;101241.63;;;25.60;100.00
72896;BME280;61036;53.224;6.554;2023-09-12T02:57:58;101249.22;;;25.51;100.00
72896;BME280;61036;53.224;6.554;2023-09-12T03:00:24;101248.34;;;25.44;100.00
72896;BME280;61036;53.224;6.554;2023-09-12T03:02:50;101255.78;;;25.43;100.00
72896;BME280;61036;53.224;6.554;2023-09-12T03:05:15;101249.53;;;25.06;100.00
72896;BME280;61036;53.224;6.554;2023-09-12T03:07:41;101242.22;;;25.48;100.00
72896;BME280;61036;53.224;6.554;2023-09-12T03:10:07;101231.56;;;24.89;100.00
72896;BME280;61036;53.224;6.554;2023-09-12T03:12:32;101237.88;;;25.11;100.00
72896;BME280;61036;53.224;6.554;2023-09-12T03:14:58;101240.44;;;25.34;100.00
72896;BME280;61036;53.224;6.554;2023-09-12T03:17:23;101241.03;;;25.29;100.00
72896;BME280;61036;53.224;6.554;2023-09-12T03:19:50;101236.19;;;25.38;100.00
72896;BME280;61036;53.224;6.554;2023-09-12T03:22:15;101232.88;;;24.93;100.00
72896;BME280;61036;53.224;6.554;2023-09-12T03:24:41;101239.34;;;25.35;100.00
72896;BME280;61036;53.224;6.554;2023-09-12T03:27:07;101244.72;;;25.43;100.00
72896;BME280;61036;53.224;6.554;2023-09-12T03:29:33;101238.25;;;25.64;100.00
72896;BME280;61036;53.224;6.554;2023-09-12T03:31:58;101243.28;;;25.19;100.00
72896;BME280;61036;53.224;6.554;2023-09-12T03:34:24;101235.97;;;24.83;100.00
72896;BME280;61036;53.224;6.554;2023-09-12T03:36:49;101235.56;;;24.86;100.00
72896;BME280;61036;53.224;6.554;2023-09-12T03:39:15;101230.72;;;24.89;100.00
72896;BME280;61036;53.224;6.554;2023-09-12T03:41:41;101224.94;;;24.83;100.00
72896;BME280;61036;53.224;6.554;2023-09-12T03:44:06;101216.63;;;25.05;100.00
72896;BME280;61036;53.224;6.554;2023-09-12T03:46:32;101213.09;;;24.90;100.00
72896;BME280;61036;53.224;6.554;2023-09-12T03:48:57;101213.84;;;24.34;100.00
72896;BME280;61036;53.224;6.554;2023-09-12T03:51:23;101210.78;;;24.65;100.00
72896;BME280;61036;53.224;6.554;2023-09-12T03:53:50;101215.81;;;24.83;100.00
72896;BME280;61036;53.224;6.554;2023-09-12T03:56:16;101218.09;;;25.01;100.00
72896;BME280;61036;53.224;6.554;2023-09-12T03:58:45;101219.53;;;25.18;100.00
72896;BME280;61036;53.224;6.554;2023-09-12T04:01:11;101220.56;;;25.17;100.00
72896;BME280;61036;53.224;6.554;2023-09-12T04:03:36;101217.66;;;24.76;100.00
72896;BME280;61036;53.224;6.554;2023-09-12T04:06:02;101211.47;;;24.95;100.00
72896;BME280;61036;53.224;6.554;2023-09-12T04:08:28;101217.03;;;24.74;100.00
72896;BME280;61036;53.224;6.554;2023-09-12T04:10:53;101221.72;;;25.08;100.00
72896;BME280;61036;53.224;6.554;2023-09-12T04:13:19;101212.22;;;24.82;100.00
72896;BME280;61036;53.224;6.554;2023-09-12T04:15:44;101214.13;;;25.10;100.00
72896;BME280;61036;53.224;6.554;2023-09-12T04:18:10;101215.94;;;25.24;100.00
72896;BME280;61036;53.224;6.554;2023-09-12T04:20:35;101215.81;;;25.11;100.00
72896;BME280;61036;53.224;6.554;2023-09-12T04:23:01;101215.09;;;25.02;100.00
72896;BME280;61036;53.224;6.554;2023-09-12T04:25:31;101211.31;;;25.03;100.00
72896;BME280;61036;53.224;6.554;2023-09-12T04:27:56;101216.63;;;25.05;100.00
72896;BME280;61036;53.224;6.554;2023-09-12T04:30:22;101207.75;;;25.09;100.00
72896;BME280;61036;53.224;6.554;2023-09-12T04:32:48;101215.72;;;24.98;100.00
72896;BME280;61036;53.224;6.554;2023-09-12T04:35:13;101219.34;;;24.98;100.00
72896;BME280;61036;53.224;6.554;2023-09-12T04:37:39;101212.94;;;24.91;100.00
72896;BME280;61036;53.224;6.554;2023-09-12T04:40:06;101205.91;;;25.17;100.00
72896;BME280;61036;53.224;6.554;2023-09-12T04:42:32;101211.94;;;25.05;100.00
72896;BME280;61036;53.224;6.554;2023-09-12T04:44:58;101215.09;;;25.02;100.00
72896;BME280;61036;53.224;6.554;2023-09-12T04:47:23;101207.19;;;24.43;100.00
72896;BME280;61036;53.224;6.554;2023-09-12T04:49:49;101211.00;;;24.42;100.00
72896;BME280;61036;53.224;6.554;2023-09-12T04:52:15;101213.16;;;24.47;100.00
72896;BME280;61036;53.224;6.554;2023-09-12T04:54:40;101203.41;;;24.72;100.00
72896;BME280;61036;53.224;6.554;2023-09-12T04:57:07;101199.22;;;25.04;100.00
72896;BME280;61036;53.224;6.554;2023-09-12T04:59:33;101202.34;;;24.95;100.00
72896;BME280;61036;53.224;6.554;2023-09-12T05:01:58;101201.50;;;25.22;100.00
72896;BME280;61036;53.224;6.554;2023-09-12T05:04:24;101207.44;;;24.98;100.00
72896;BME280;61036;53.224;6.554;2023-09-12T05:06:49;101207.75;;;25.09;100.00
72896;BME280;61036;53.224;6.554;2023-09-12T05:09:15;101214.44;;;24.72;100.00
72896;BME280;61036;53.224;6.554;2023-09-12T05:11:41;101222.72;;;24.29;100.00
72896;BME280;61036;53.224;6.554;2023-09-12T05:14:07;101228.91;;;24.53;100.00
72896;BME280;61036;53.224;6.554;2023-09-12T05:16:32;101217.72;;;24.82;100.00
72896;BME280;61036;53.224;6.554;2023-09-12T05:18:58;101220.19;;;24.71;100.00
72896;BME280;61036;53.224;6.554;2023-09-12T05:21:24;101215.47;;;24.64;100.00
72896;BME280;61036;53.224;6.554;2023-09-12T05:23:49;101216.09;;;24.45;100.00
72896;BME280;61036;53.224;6.554;2023-09-12T05:26:15;101219.84;;;24.37;100.00
72896;BME280;61036;53.224;6.554;2023-09-12T05:28:41;101222.66;;;24.66;100.00
72896;BME280;61036;53.224;6.554;2023-09-12T05:31:06;101232.13;;;24.56;100.00
72896;BME280;61036;53.224;6.554;2023-09-12T05:33:33;101241.16;;;24.29;100.00
72896;BME280;61036;53.224;6.554;2023-09-12T05:36:00;101237.91;;;24.61;100.00
72896;BME280;61036;53.224;6.554;2023-09-12T05:38:27;101236.06;;;24.11;100.00
72896;BME280;61036;53.224;6.554;2023-09-12T05:40:53;101232.59;;;24.02;100.00
72896;BME280;61036;53.224;6.554;2023-09-12T05:43:18;101241.88;;;24.16;100.00
72896;BME280;61036;53.224;6.554;2023-09-12T05:45:44;101233.97;;;24.49;100.00
72896;BME280;61036;53.224;6.554;2023-09-12T05:48:10;101233.72;;;24.44;100.00
72896;BME280;61036;53.224;6.554;2023-09-12T05:50:36;101248.41;;;24.15;100.00
72896;BME280;61036;53.224;6.554;2023-09-12T05:53:02;101258.81;;;24.34;100.00
72896;BME280;61036;53.224;6.554;2023-09-12T05:55:28;101255.13;;;23.76;100.00
72896;BME280;61036;53.224;6.554;2023-09-12T05:57:54;101263.13;;;23.71;100.00
72896;BME280;61036;53.224;6.554;2023-09-12T06:00:20;101262.91;;;23.87;100.00
72896;BME280;61036;53.224;6.554;2023-09-12T06:02:47;101269.31;;;24.09;100.00
72896;BME280;61036;53.224;6.554;2023-09-12T06:05:13;101276.69;;;23.72;100.00
72896;BME280;61036;53.224;6.554;2023-09-12T06:07:39;101276.50;;;23.89;100.00
72896;BME280;61036;53.224;6.554;2023-09-12T06:10:07;101272.38;;;24.00;100.00
72896;BME280;61036;53.224;6.554;2023-09-12T06:12:32;101282.16;;;24.17;100.00
72896;BME280;61036;53.224;6.554;2023-09-12T06:14:59;101278.56;;;24.02;100.00
72896;BME280;61036;53.224;6.554;2023-09-12T06:17:24;101277.81;;;23.93;100.00
72896;BME280;61036;53.224;6.554;2023-09-12T06:19:50;101267.75;;;24.22;100.00
72896;BME280;61036;53.224;6.554;2023-09-12T06:22:16;101265.56;;;24.32;100.00
72896;BME280;61036;53.224;6.554;2023-09-12T06:24:43;101271.47;;;24.44;100.00
72896;BME280;61036;53.224;6.554;2023-09-12T06:27:08;101272.63;;;24.56;100.00
72896;BME280;61036;53.224;6.554;2023-09-12T06:29:35;101281.38;;;24.59;100.00
72896;BME280;61036;53.224;6.554;2023-09-12T06:32:00;101273.94;;;24.81;100.00
72896;BME280;61036;53.224;6.554;2023-09-12T06:34:27;101266.31;;;24.83;100.00
72896;BME280;61036;53.224;6.554;2023-09-12T06:36:53;101268.00;;;24.41;100.00
72896;BME280;61036;53.224;6.554;2023-09-12T06:39:18;101251.34;;;24.93;100.00
72896;BME280;61036;53.224;6.554;2023-09-12T06:41:44;101263.63;;;24.90;100.00
72896;BME280;61036;53.224;6.554;2023-09-12T06:44:10;101254.47;;;24.61;100.00
72896;BME280;61036;53.224;6.554;2023-09-12T06:46:35;101250.63;;;24.05;100.00
72896;BME280;61036;53.224;6.554;2023-09-12T06:49:04;101255.19;;;23.98;100.00
72896;BME280;61036;53.224;6.554;2023-09-12T06:51:29;101261.66;;;24.05;100.00
72896;BME280;61036;53.224;6.554;2023-09-12T06:53:55;101258.31;;;24.31;100.00
72896;BME280;61036;53.224;6.554;2023-09-12T06:56:21;101250.78;;;24.39;100.00
72896;BME280;61036;53.224;6.554;2023-09-12T06:58:49;101251.88;;;24.60;100.00
72896;BME280;61036;53.224;6.554;2023-09-12T07:01:15;101249.34;;;24.58;100.00
72896;BME280;61036;53.224;6.554;2023-09-12T07:03:40;101254.38;;;24.76;100.00
72896;BME280;61036;53.224;6.554;2023-09-12T07:06:06;101256.91;;;24.99;100.00
72896;BME280;61036;53.224;6.554;2023-09-12T07:08:32;101242.91;;;25.22;100.00
72896;BME280;61036;53.224;6.554;2023-09-12T07:10:59;101241.88;;;25.65;100.00
72896;BME280;61036;53.224;6.554;2023-09-12T07:13:30;101250.00;;;25.10;100.00
72896;BME280;61036;53.224;6.554;2023-09-12T07:15:56;101247.63;;;25.35;100.00
72896;BME280;61036;53.224;6.554;2023-09-12T07:18:22;101252.75;;;25.38;100.00
72896;BME280;61036;53.224;6.554;2023-09-12T07:20:56;101254.34;;;25.54;100.00
72896;BME280;61036;53.224;6.554;2023-09-12T07:23:22;101255.16;;;25.48;100.00
72896;BME280;61036;53.224;6.554;2023-09-12T07:25:48;101260.72;;;24.98;100.00
72896;BME280;61036;53.224;6.554;2023-09-12T07:28:13;101267.16;;;24.84;100.00
72896;BME280;61036;53.224;6.554;2023-09-12T07:30:40;101272.06;;;25.10;100.00
72896;BME280;61036;53.224;6.554;2023-09-12T07:33:05;101265.56;;;24.68;100.00
72896;BME280;61036;53.224;6.554;2023-09-12T07:35:31;101267.88;;;24.93;100.00
72896;BME280;61036;53.224;6.554;2023-09-12T07:37:56;101258.66;;;25.28;100.00
72896;BME280;61036;53.224;6.554;2023-09-12T07:40:22;101266.16;;;25.41;100.00
72896;BME280;61036;53.224;6.554;2023-09-12T07:42:47;101271.72;;;24.70;100.00
72896;BME280;61036;53.224;6.554;2023-09-12T07:45:13;101278.34;;;25.53;100.00
72896;BME280;61036;53.224;6.554;2023-09-12T07:47:39;101277.09;;;25.56;100.00
72896;BME280;61036;53.224;6.554;2023-09-12T07:50:05;101282.44;;;25.64;100.00
72896;BME280;61036;53.224;6.554;2023-09-12T07:52:32;101284.16;;;25.30;100.00
72896;BME280;61036;53.224;6.554;2023-09-12T07:55:01;101285.31;;;26.26;100.00
72896;BME280;61036;53.224;6.554;2023-09-12T07:57:28;101287.84;;;26.20;100.00
72896;BME280;61036;53.224;6.554;2023-09-12T07:59:55;101294.66;;;26.25;100.00
72896;BME280;61036;53.224;6.554;2023-09-12T08:02:20;101300.38;;;26.16;100.00
72896;BME280;61036;53.224;6.554;2023-09-12T08:04:46;101294.19;;;26.14;100.00
72896;BME280;61036;53.224;6.554;2023-09-12T08:07:12;101292.59;;;25.85;100.00
72896;BME280;61036;53.224;6.554;2023-09-12T08:09:52;101297.88;;;25.52;100.00
72896;BME280;61036;53.224;6.554;2023-09-12T08:12:19;101307.56;;;25.69;100.00
72896;BME280;61036;53.224;6.554;2023-09-12T08:14:45;101315.06;;;24.76;100.00
72896;BME280;61036;53.224;6.554;2023-09-12T08:17:11;101308.22;;;25.78;100.00
72896;BME280;61036;53.224;6.554;2023-09-12T08:19:37;101311.97;;;25.98;100.00
72896;BME280;61036;53.224;6.554;2023-09-12T08:22:03;101316.78;;;26.25;100.00
72896;BME280;61036;53.224;6.554;2023-09-12T08:24:29;101318.09;;;26.35;100.00
72896;BME280;61036;53.224;6.554;2023-09-12T08:26:54;101314.34;;;26.08;100.00
72896;BME280;61036;53.224;6.554;2023-09-12T08:29:20;101318.19;;;26.07;100.00
72896;BME280;61036;53.224;6.554;2023-09-12T08:31:46;101324.09;;;26.45;100.00
72896;BME280;61036;53.224;6.554;2023-09-12T08:34:12;101321.47;;;26.24;100.00
72896;BME280;61036;53.224;6.554;2023-09-12T08:36:39;101325.78;;;26.46;100.00
72896;BME280;61036;53.224;6.554;2023-09-12T08:39:04;101317.03;;;26.30;100.00
72896;BME280;61036;53.224;6.554;2023-09-12T08:41:32;101325.41;;;26.56;100.00
72896;BME280;61036;53.224;6.554;2023-09-12T08:44:00;101322.56;;;26.30;100.00
72896;BME280;61036;53.224;6.554;2023-09-12T08:46:26;101317.25;;;27.23;100.00
72896;BME280;61036;53.224;6.554;2023-09-12T08:48:55;101318.84;;;27.90;100.00
72896;BME280;61036;53.224;6.554;2023-09-12T08:51:22;101322.44;;;28.56;100.00
72896;BME280;61036;53.224;6.554;2023-09-12T08:53:50;101320.31;;;27.99;100.00
72896;BME280;61036;53.224;6.554;2023-09-12T08:56:16;101315.28;;;27.03;100.00
72896;BME280;61036;53.224;6.554;2023-09-12T08:58:43;101323.81;;;27.28;100.00
72896;BME280;61036;53.224;6.554;2023-09-12T09:01:09;101331.03;;;27.09;100.00
72896;BME280;61036;53.224;6.554;2023-09-12T09:03:39;101332.34;;;27.27;100.00
72896;BME280;61036;53.224;6.554;2023-09-12T09:06:08;101328.31;;;27.36;100.00
72896;BME280;61036;53.224;6.554;2023-09-12T09:08:34;101333.16;;;27.01;100.00
72896;BME280;61036;53.224;6.554;2023-09-12T09:11:00;101333.41;;;27.19;100.00
72896;BME280;61036;53.224;6.554;2023-09-12T09:13:34;101328.44;;;27.68;100.00
72896;BME280;61036;53.224;6.554;2023-09-12T09:16:16;101326.78;;;27.07;100.00
72896;BME280;61036;53.224;6.554;2023-09-12T09:21:23;101323.81;;;27.48;100.00
72896;BME280;61036;53.224;6.554;2023-09-12T09:23:54;101318.38;;;28.00;100.00
72896;BME280;61036;53.224;6.554;2023-09-12T09:26:20;101326.63;;;26.47;100.00
72896;BME280;61036;53.224;6.554;2023-09-12T09:29:03;101316.56;;;27.54;100.00
72896;BME280;61036;53.224;6.554;2023-09-12T09:31:29;101324.47;;;27.24;100.00
72896;BME280;61036;53.224;6.554;2023-09-12T09:33:55;101316.09;;;27.70;100.00
72896;BME280;61036;53.224;6.554;2023-09-12T09:36:21;101326.34;;;27.03;100.00
72896;BME280;61036;53.224;6.554;2023-09-12T09:38:46;101329.34;;;27.28;100.00
72896;BME280;61036;53.224;6.554;2023-09-12T09:41:12;101319.59;;;27.26;100.00
72896;BME280;61036;53.224;6.554;2023-09-12T09:43:37;101311.22;;;26.79;100.00
72896;BME280;61036;53.224;6.554;2023-09-12T09:46:03;101316.31;;;27.82;100.00
72896;BME280;61036;53.224;6.554;2023-09-12T09:48:29;101319.16;;;27.29;100.00
72896;BME280;61036;53.224;6.554;2023-09-12T09:51:01;101316.13;;;27.57;100.00
72896;BME280;61036;53.224;6.554;2023-09-12T09:53:31;101313.38;;;27.50;100.00
72896;BME280;61036;53.224;6.554;2023-09-12T09:56:08;101319.41;;;28.12;100.00
72896;BME280;61036;53.224;6.554;2023-09-12T10:01:23;101319.69;;;27.91;100.00
72896;BME280;61036;53.224;6.554;2023-09-12T10:03:52;101313.97;;;27.79;100.00
72896;BME280;61036;53.224;6.554;2023-09-12T10:06:19;101314.59;;;27.74;100.00
72896;BME280;61036;53.224;6.554;2023-09-12T10:08:49;101313.97;;;28.37;100.00
72896;BME280;61036;53.224;6.554;2023-09-12T10:11:16;101312.00;;;27.99;100.00
72896;BME280;61036;53.224;6.554;2023-09-12T10:13:47;101318.28;;;28.71;100.00
72896;BME280;61036;53.224;6.554;2023-09-12T10:16:15;101314.63;;;28.33;100.00
72896;BME280;61036;53.224;6.554;2023-09-12T10:21:30;101323.38;;;28.75;100.00
72896;BME280;61036;53.224;6.554;2023-09-12T10:23:59;101317.97;;;28.48;100.00
72896;BME280;61036;53.224;6.554;2023-09-12T10:26:25;101314.47;;;28.21;100.00
72896;BME280;61036;53.224;6.554;2023-09-12T10:28:51;101321.56;;;28.87;100.00
72896;BME280;61036;53.224;6.554;2023-09-12T10:31:18;101321.13;;;29.47;100.00
72896;BME280;61036;53.224;6.554;2023-09-12T10:33:44;101326.94;;;29.38;100.00
72896;BME280;61036;53.224;6.554;2023-09-12T10:36:12;101314.31;;;29.86;100.00
72896;BME280;61036;53.224;6.554;2023-09-12T10:38:45;101321.78;;;30.04;100.00
72896;BME280;61036;53.224;6.554;2023-09-12T10:41:12;101328.19;;;29.17;100.00
72896;BME280;61036;53.224;6.554;2023-09-12T10:43:42;101322.38;;;28.62;100.00
72896;BME280;61036;53.224;6.554;2023-09-12T10:46:09;101314.00;;;29.01;100.00
72896;BME280;61036;53.224;6.554;2023-09-12T10:48:36;101303.69;;;29.33;100.00
72896;BME280;61036;53.224;6.554;2023-09-12T10:51:02;101304.69;;;29.20;100.00
72896;BME280;61036;53.224;6.554;2023-09-12T10:53:31;101304.69;;;29.20;100.00
72896;BME280;61036;53.224;6.554;2023-09-12T11:01:35;101299.72;;;30.58;100.00
72896;BME280;61036;53.224;6.554;2023-09-12T11:06:56;101310.00;;;29.47;100.00
72896;BME280;61036;53.224;6.554;2023-09-12T11:09:24;101299.88;;;29.77;100.00
72896;BME280;61036;53.224;6.554;2023-09-12T11:11:57;101306.44;;;29.39;100.00
72896;BME280;61036;53.224;6.554;2023-09-12T11:14:23;101298.81;;;29.10;100.00
72896;BME280;61036;53.224;6.554;2023-09-12T11:17:22;101296.72;;;29.49;100.00
72896;BME280;61036;53.224;6.554;2023-09-12T11:19:50;101306.38;;;29.21;100.00
72896;BME280;61036;53.224;6.554;2023-09-12T11:22:21;101305.06;;;28.99;100.00
72896;BME280;61036;53.224;6.554;2023-09-12T11:24:48;101308.09;;;28.90;100.00
72896;BME280;61036;53.224;6.554;2023-09-12T11:27:14;101306.13;;;29.48;100.00
72896;BME280;61036;53.224;6.554;2023-09-12T11:29:40;101303.09;;;29.31;100.00
72896;BME280;61036;53.224;6.554;2023-09-12T11:32:07;101301.56;;;29.97;100.00
72896;BME280;61036;53.224;6.554;2023-09-12T11:34:37;101303.34;;;29.04;100.00
72896;BME280;61036;53.224;6.554;2023-09-12T11:37:06;101303.56;;;29.28;100.00
72896;BME280;61036;53.224;6.554;2023-09-12T11:39:34;101298.09;;;29.39;100.00
72896;BME280;61036;53.224;6.554;2023-09-12T11:42:01;101297.94;;;29.34;100.00
72896;BME280;61036;53.224;6.554;2023-09-12T11:44:27;101287.03;;;30.13;100.00
72896;BME280;61036;53.224;6.554;2023-09-12T11:46:54;101291.84;;;30.06;100.00
72896;BME280;61036;53.224;6.554;2023-09-12T11:49:20;101291.63;;;29.46;100.00
72896;BME280;61036;53.224;6.554;2023-09-12T11:51:53;101292.44;;;29.90;100.00
72896;BME280;61036;53.224;6.554;2023-09-12T11:54:25;101302.66;;;31.28;100.00
72896;BME280;61036;53.224;6.554;2023-09-12T11:56:51;101302.63;;;29.77;100.00
72896;BME280;61036;53.224;6.554;2023-09-12T11:59:23;101299.25;;;29.50;100.00
72896;BME280;61036;53.224;6.554;2023-09-12T12:01:48;101301.19;;;29.50;100.00
72896;BME280;61036;53.224;6.554;2023-09-12T12:04:14;101303.06;;;30.48;100.00
72896;BME280;61036;53.224;6.554;2023-09-12T12:06:40;101302.50;;;30.09;100.00
72896;BME280;61036;53.224;6.554;2023-09-12T12:09:06;101297.97;;;29.53;100.00
72896;BME280;61036;53.224;6.554;2023-09-12T12:11:32;101298.09;;;29.39;100.00
72896;BME280;61036;53.224;6.554;2023-09-12T12:13:58;101294.66;;;29.19;100.00
72896;BME280;61036;53.224;6.554;2023-09-12T12:16:25;101291.06;;;29.80;100.00
72896;BME280;61036;53.224;6.554;2023-09-12T12:18:51;101292.06;;;30.04;100.00
72896;BME280;61036;53.224;6.554;2023-09-12T12:21:21;101287.50;;;29.73;100.00
72896;BME280;61036;53.224;6.554;2023-09-12T12:23:46;101284.56;;;29.68;100.00
72896;BME280;61036;53.224;6.554;2023-09-12T12:26:12;101286.00;;;29.52;100.00
72896;BME280;61036;53.224;6.554;2023-09-12T12:28:38;101282.44;;;28.95;100.00
72896;BME280;61036;53.224;6.554;2023-09-12T12:31:04;101286.91;;;29.28;100.00
72896;BME280;61036;53.224;6.554;2023-09-12T12:33:30;101278.25;;;29.54;100.00
72896;BME280;61036;53.224;6.554;2023-09-12T12:36:03;101288.22;;;29.44;100.00
72896;BME280;61036;53.224;6.554;2023-09-12T12:38:36;101292.16;;;29.79;100.00
72896;BME280;61036;53.224;6.554;2023-09-12T12:41:02;101292.13;;;29.36;100.00
72896;BME280;61036;53.224;6.554;2023-09-12T12:43:27;101285.44;;;29.44;100.00
72896;BME280;61036;53.224;6.554;2023-09-12T12:45:57;101290.41;;;29.16;100.00
72896;BME280;61036;53.224;6.554;2023-09-12T12:48:33;101289.63;;;28.78;100.00
72896;BME280;61036;53.224;6.554;2023-09-12T12:51:12;101294.94;;;28.47;100.00
72896;BME280;61036;53.224;6.554;2023-09-12T12:53:42;101280.50;;;28.32;100.00
72896;BME280;61036;53.224;6.554;2023-09-12T12:56:08;101267.09;;;27.57;100.00
72896;BME280;61036;53.224;6.554;2023-09-12T12:58:36;101274.13;;;27.80;100.00
72896;BME280;61036;53.224;6.554;2023-09-12T13:01:02;101265.38;;;27.70;100.00